createdAt,value
2019-03-30T00:02:06.257Z,7.96
2019-03-30T00:04:34.723Z,7.92
2019-03-30T00:07:03.196Z,7.88
2019-03-30T00:09:31.688Z,7.83
2019-03-30T00:12:00.148Z,7.78
2019-03-30T00:14:28.598Z,7.74
2019-03-30T00:16:57.115Z,7.69
2019-03-30T00:19:34.894Z,7.65
2019-03-30T00:21:55.942Z,7.63
2019-03-30T00:24:24.470Z,7.60
2019-03-30T00:26:53.071Z,7.59
2019-03-30T00:29:21.539Z,7.56
2019-03-30T00:31:50.035Z,7.56
2019-03-30T00:34:18.501Z,7.55
2019-03-30T00:36:47.175Z,7.54
2019-03-30T00:39:15.647Z,7.52
2019-03-30T00:41:44.123Z,7.52
2019-03-30T00:44:12.595Z,7.52
2019-03-30T00:46:41.112Z,7.50
2019-03-30T00:49:09.568Z,7.46
2019-03-30T00:51:38.187Z,7.45
2019-03-30T00:54:06.694Z,7.44
2019-03-30T00:56:35.165Z,7.40
2019-03-30T00:59:03.620Z,7.36
2019-03-30T01:01:32.197Z,7.33
2019-03-30T01:04:00.677Z,7.30
2019-03-30T01:06:29.214Z,7.28
2019-03-30T01:08:57.708Z,7.25
2019-03-30T01:11:26.180Z,7.24
2019-03-30T01:13:54.638Z,7.20
2019-03-30T01:16:23.146Z,7.20
2019-03-30T01:18:51.603Z,7.18
2019-03-30T01:21:20.066Z,7.15
2019-03-30T01:23:48.670Z,7.16
2019-03-30T01:26:17.133Z,7.14
2019-03-30T01:28:45.595Z,7.11
2019-03-30T01:31:14.099Z,7.10
2019-03-30T01:33:42.569Z,7.09
2019-03-30T01:36:11.098Z,7.08
2019-03-30T01:38:39.593Z,7.07
2019-03-30T01:41:08.214Z,7.07
2019-03-30T01:43:36.816Z,7.05
2019-03-30T01:46:05.323Z,7.04
2019-03-30T01:48:33.788Z,7.03
2019-03-30T01:51:02.259Z,7.01
2019-03-30T01:53:30.787Z,7.02
2019-03-30T01:55:59.250Z,7.01
2019-03-30T01:58:27.723Z,7.01
2019-03-30T02:00:56.238Z,6.98
2019-03-30T02:03:24.716Z,6.98
2019-03-30T02:05:53.174Z,6.98
2019-03-30T02:08:21.671Z,6.96
2019-03-30T02:10:50.129Z,6.95
2019-03-30T02:13:18.582Z,6.95
2019-03-30T02:15:47.085Z,6.93
2019-03-30T02:18:15.544Z,6.91
2019-03-30T02:20:46.429Z,6.92
2019-03-30T02:23:14.933Z,6.92
2019-03-30T02:25:43.785Z,6.90
2019-03-30T02:28:12.297Z,6.89
2019-03-30T02:30:40.800Z,6.89
2019-03-30T02:33:09.374Z,6.88
2019-03-30T02:35:37.814Z,6.88
2019-03-30T02:38:06.402Z,6.87
2019-03-30T02:40:34.849Z,6.86
2019-03-30T02:43:03.326Z,6.86
2019-03-30T02:45:31.840Z,6.86
2019-03-30T02:48:00.320Z,6.85
2019-03-30T02:50:28.796Z,6.84
2019-03-30T02:52:57.288Z,6.83
2019-03-30T02:55:25.764Z,6.83
2019-03-30T02:57:54.218Z,6.83
2019-03-30T03:00:22.710Z,6.82
2019-03-30T03:02:51.167Z,6.84
2019-03-30T03:05:20.011Z,6.82
2019-03-30T03:07:48.524Z,6.83
2019-03-30T03:10:17.148Z,6.82
2019-03-30T03:12:45.650Z,6.82
2019-03-30T03:15:14.315Z,6.80
2019-03-30T03:17:42.785Z,6.80
2019-03-30T03:20:11.310Z,6.80
2019-03-30T03:22:39.815Z,6.79
2019-03-30T03:25:08.560Z,6.79
2019-03-30T03:27:37.445Z,6.78
2019-03-30T03:30:06.674Z,6.76
2019-03-30T03:32:35.185Z,6.76
2019-03-30T03:35:03.635Z,6.74
2019-03-30T03:37:44.834Z,6.75
2019-03-30T03:40:02.311Z,6.74
2019-03-30T03:42:30.762Z,6.74
2019-03-30T03:44:59.290Z,6.73
2019-03-30T03:47:27.753Z,6.73
2019-03-30T03:49:56.211Z,6.73
2019-03-30T03:52:24.701Z,6.71
2019-03-30T03:54:53.939Z,6.71
2019-03-30T03:57:22.570Z,6.69
2019-03-30T03:59:52.338Z,6.69
2019-03-30T04:02:21.581Z,6.68
2019-03-30T04:04:50.519Z,6.69
2019-03-30T04:07:19.506Z,6.68
2019-03-30T04:09:49.753Z,6.66
2019-03-30T04:12:18.791Z,6.65
2019-03-30T04:14:50.469Z,6.65
2019-03-30T04:17:19.006Z,6.64
2019-03-30T04:19:47.460Z,6.62
2019-03-30T04:22:15.979Z,6.60
2019-03-30T04:24:44.460Z,6.58
2019-03-30T04:27:12.922Z,6.56
2019-03-30T04:29:41.804Z,6.55
2019-03-30T04:32:10.274Z,6.54
2019-03-30T04:34:38.728Z,6.54
2019-03-30T04:37:07.222Z,6.51
2019-03-30T04:39:35.687Z,6.49
2019-03-30T04:42:04.216Z,6.47
2019-03-30T04:44:32.733Z,6.46
2019-03-30T04:47:01.208Z,6.46
2019-03-30T04:49:29.685Z,6.46
2019-03-30T04:51:58.334Z,6.44
2019-03-30T04:54:26.937Z,6.43
2019-03-30T04:56:55.397Z,6.43
2019-03-30T04:59:23.901Z,6.41
2019-03-30T05:01:52.383Z,6.41
2019-03-30T05:04:20.863Z,6.40
2019-03-30T05:06:49.385Z,6.40
2019-03-30T05:09:17.871Z,6.38
2019-03-30T05:11:46.344Z,6.39
2019-03-30T05:14:16.496Z,6.41
2019-03-30T05:16:44.987Z,6.42
2019-03-30T05:19:13.458Z,6.42
2019-03-30T05:21:41.941Z,6.42
2019-03-30T05:24:10.413Z,6.41
2019-03-30T05:26:38.883Z,6.42
2019-03-30T05:29:07.387Z,6.43
2019-03-30T05:31:36.079Z,6.45
2019-03-30T05:34:04.645Z,6.46
2019-03-30T05:36:33.179Z,6.47
2019-03-30T05:39:01.643Z,6.48
2019-03-30T05:41:30.103Z,6.47
2019-03-30T05:43:58.584Z,6.46
2019-03-30T05:46:27.050Z,6.43
2019-03-30T05:48:55.521Z,6.43
2019-03-30T05:51:24.018Z,6.45
2019-03-30T05:53:52.487Z,6.48
2019-03-30T05:56:20.958Z,6.53
2019-03-30T05:58:49.468Z,6.59
2019-03-30T06:01:17.928Z,6.65
2019-03-30T06:03:46.471Z,6.71
2019-03-30T06:06:14.950Z,6.77
2019-03-30T06:08:43.423Z,6.84
2019-03-30T06:11:11.882Z,6.92
2019-03-30T06:13:40.395Z,6.99
2019-03-30T06:16:08.867Z,7.06
2019-03-30T06:18:37.322Z,7.13
2019-03-30T06:21:05.865Z,7.21
2019-03-30T06:23:34.321Z,7.26
2019-03-30T06:26:02.781Z,7.31
2019-03-30T06:28:31.283Z,7.35
2019-03-30T06:30:59.738Z,7.40
2019-03-30T06:33:28.305Z,7.45
2019-03-30T06:35:56.794Z,7.50
2019-03-30T06:38:25.265Z,7.53
2019-03-30T06:40:53.726Z,7.58
2019-03-30T06:43:22.231Z,7.63
2019-03-30T06:45:50.700Z,7.70
2019-03-30T06:48:19.171Z,7.77
2019-03-30T06:50:48.326Z,7.83
2019-03-30T06:53:16.807Z,7.92
2019-03-30T06:55:45.267Z,8.00
2019-03-30T06:58:13.763Z,8.09
2019-03-30T07:00:42.224Z,8.17
2019-03-30T07:03:10.690Z,8.23
2019-03-30T07:05:39.928Z,8.31
2019-03-30T07:08:11.557Z,8.38
2019-03-30T07:10:40.046Z,8.43
2019-03-30T07:13:08.922Z,8.47
2019-03-30T07:15:40.566Z,8.51
2019-03-30T07:18:09.109Z,8.56
2019-03-30T07:20:37.595Z,8.63
2019-03-30T07:23:12.285Z,8.73
2019-03-30T07:25:36.253Z,8.81
2019-03-30T07:28:04.751Z,8.89
2019-03-30T07:30:33.208Z,8.97
2019-03-30T07:33:01.674Z,9.05
2019-03-30T07:35:31.253Z,9.14
2019-03-30T07:37:59.727Z,9.24
2019-03-30T07:40:28.218Z,9.33
2019-03-30T07:42:56.802Z,9.45
2019-03-30T07:45:25.278Z,9.55
2019-03-30T07:47:53.749Z,9.65
2019-03-30T07:50:22.317Z,9.75
2019-03-30T07:52:50.786Z,9.86
2019-03-30T07:55:19.252Z,9.96
2019-03-30T07:57:47.878Z,10.07
2019-03-30T08:00:16.418Z,10.17
2019-03-30T08:02:44.880Z,10.26
2019-03-30T08:05:13.633Z,10.33
2019-03-30T08:07:42.110Z,10.41
2019-03-30T08:10:10.837Z,10.49
2019-03-30T08:12:39.340Z,10.58
2019-03-30T08:15:08.859Z,10.67
2019-03-30T08:17:37.319Z,10.76
2019-03-30T08:20:07.368Z,10.85
2019-03-30T08:22:35.834Z,10.94
2019-03-30T08:25:05.926Z,11.05
2019-03-30T08:27:34.421Z,11.16
2019-03-30T08:30:03.065Z,11.25
2019-03-30T08:32:31.537Z,11.35
2019-03-30T08:35:00.036Z,11.45
2019-03-30T08:37:28.782Z,11.56
2019-03-30T08:39:57.261Z,11.68
2019-03-30T08:42:25.784Z,11.78
2019-03-30T08:44:54.256Z,11.93
2019-03-30T08:47:22.715Z,12.04
2019-03-30T08:49:51.225Z,12.14
2019-03-30T08:52:19.686Z,12.24
2019-03-30T08:54:49.627Z,12.35
2019-03-30T08:57:18.108Z,12.45
2019-03-30T08:59:46.586Z,12.56
2019-03-30T09:02:15.465Z,12.67
2019-03-30T09:04:44.040Z,12.78
2019-03-30T09:07:12.516Z,12.88
2019-03-30T09:09:40.988Z,12.95
2019-03-30T09:12:09.514Z,13.03
2019-03-30T09:14:37.999Z,13.12
2019-03-30T09:17:06.484Z,13.22
2019-03-30T09:19:35.021Z,13.31
2019-03-30T09:22:03.566Z,13.39
2019-03-30T09:24:32.043Z,13.47
2019-03-30T09:27:00.559Z,13.56
2019-03-30T09:29:29.027Z,13.65
2019-03-30T09:31:57.501Z,13.75
2019-03-30T09:34:26.004Z,13.87
2019-03-30T09:36:54.708Z,13.97
2019-03-30T09:39:23.256Z,14.08
2019-03-30T09:41:51.739Z,14.16
2019-03-30T09:44:21.942Z,14.25
2019-03-30T09:46:50.414Z,14.35
2019-03-30T09:49:18.885Z,14.46
2019-03-30T09:51:47.349Z,14.56
2019-03-30T09:54:23.536Z,14.68
2019-03-30T09:56:46.046Z,14.79
2019-03-30T09:59:14.538Z,14.91
2019-03-30T10:01:43.026Z,15.02
2019-03-30T10:04:11.524Z,15.14
2019-03-30T10:06:40.002Z,15.23
2019-03-30T10:09:08.555Z,15.34
2019-03-30T10:11:37.093Z,15.43
2019-03-30T10:14:05.635Z,15.54
2019-03-30T10:16:34.135Z,15.63
2019-03-30T10:19:02.606Z,15.73
2019-03-30T10:21:31.077Z,15.82
2019-03-30T10:23:59.581Z,15.92
2019-03-30T10:26:28.062Z,15.99
2019-03-30T10:28:56.625Z,16.06
2019-03-30T10:31:25.126Z,16.13
2019-03-30T10:33:53.607Z,16.21
2019-03-30T10:36:22.093Z,16.27
2019-03-30T10:38:50.627Z,16.32
2019-03-30T10:41:19.106Z,16.38
2019-03-30T10:43:47.567Z,16.42
2019-03-30T10:46:16.078Z,16.48
2019-03-30T10:48:44.551Z,16.53
2019-03-30T10:51:13.026Z,16.61
2019-03-30T10:53:41.543Z,16.68
2019-03-30T10:56:10.008Z,16.76
2019-03-30T10:58:38.490Z,16.82
2019-03-30T11:01:06.983Z,16.89
2019-03-30T11:03:35.470Z,16.96
2019-03-30T11:06:03.941Z,17.03
2019-03-30T11:08:32.466Z,17.12
2019-03-30T11:11:00.946Z,17.20
2019-03-30T11:13:29.449Z,17.26
2019-03-30T11:15:57.960Z,17.28
2019-03-30T11:18:26.458Z,17.29
2019-03-30T11:20:54.932Z,17.33
2019-03-30T11:23:23.473Z,17.37
2019-03-30T11:25:51.921Z,17.45
2019-03-30T11:28:20.988Z,17.53
2019-03-30T11:30:49.483Z,17.62
2019-03-30T11:33:17.949Z,17.71
2019-03-30T11:35:46.517Z,17.80
2019-03-30T11:38:15.256Z,17.88
2019-03-30T11:40:43.730Z,17.95
2019-03-30T11:43:12.202Z,17.99
2019-03-30T11:45:40.802Z,18.02
2019-03-30T11:48:09.271Z,18.06
2019-03-30T11:50:37.749Z,18.11
2019-03-30T11:53:06.276Z,18.14
2019-03-30T11:55:34.741Z,18.14
2019-03-30T11:58:03.233Z,18.14
2019-03-30T12:00:31.748Z,18.12
2019-03-30T12:03:00.289Z,18.14
2019-03-30T12:05:28.782Z,18.17
2019-03-30T12:07:57.359Z,18.18
2019-03-30T12:10:25.866Z,18.21
2019-03-30T12:12:54.335Z,18.23
2019-03-30T12:15:22.852Z,18.24
2019-03-30T12:17:51.334Z,18.25
2019-03-30T12:20:19.869Z,18.27
2019-03-30T12:22:48.396Z,18.30
2019-03-30T12:25:16.960Z,18.33
2019-03-30T12:27:45.474Z,18.38
2019-03-30T12:30:14.097Z,18.43
2019-03-30T12:32:42.570Z,18.49
2019-03-30T12:35:11.159Z,18.56
2019-03-30T12:37:39.644Z,18.52
2019-03-30T12:40:09.146Z,18.64
2019-03-30T12:42:37.623Z,18.67
2019-03-30T12:45:07.875Z,18.70
2019-03-30T12:47:36.421Z,18.72
2019-03-30T12:50:06.622Z,18.75
2019-03-30T12:52:35.191Z,18.76
2019-03-30T12:55:03.866Z,18.75
2019-03-30T12:57:32.471Z,18.71
2019-03-30T13:00:00.961Z,18.71
2019-03-30T13:02:29.493Z,18.75
2019-03-30T13:04:58.130Z,18.76
2019-03-30T13:07:26.638Z,18.80
2019-03-30T13:09:55.109Z,18.84
2019-03-30T13:12:23.574Z,18.86
2019-03-30T13:14:52.086Z,18.86
2019-03-30T13:17:20.552Z,18.91
2019-03-30T13:19:49.030Z,18.98
2019-03-30T13:22:17.526Z,19.03
2019-03-30T13:24:45.993Z,19.08
2019-03-30T13:27:14.476Z,19.14
2019-03-30T13:29:42.964Z,19.19
2019-03-30T13:32:11.441Z,19.27
2019-03-30T13:34:39.915Z,19.33
2019-03-30T13:37:20.051Z,19.36
2019-03-30T13:39:48.565Z,19.33
2019-03-30T13:42:17.132Z,19.28
2019-03-30T13:44:45.614Z,19.23
2019-03-30T13:47:14.079Z,19.19
2019-03-30T13:49:42.559Z,19.17
2019-03-30T13:52:11.074Z,19.13
2019-03-30T13:54:39.697Z,19.10
2019-03-30T13:57:08.197Z,19.03
2019-03-30T13:59:37.718Z,19.00
2019-03-30T14:02:06.185Z,19.00
2019-03-30T14:04:34.650Z,19.03
2019-03-30T14:07:03.141Z,19.05
2019-03-30T14:09:31.606Z,19.09
2019-03-30T14:12:00.072Z,19.11
2019-03-30T14:14:28.607Z,19.12
2019-03-30T14:16:57.078Z,19.12
2019-03-30T14:19:25.558Z,19.11
2019-03-30T14:21:54.061Z,19.12
2019-03-30T14:24:22.526Z,19.13
2019-03-30T14:26:51.010Z,19.15
2019-03-30T14:29:19.534Z,19.16
2019-03-30T14:31:48.051Z,19.18
2019-03-30T14:34:16.482Z,19.18
2019-03-30T14:36:44.988Z,19.19
2019-03-30T14:39:13.459Z,19.18
2019-03-30T14:41:41.929Z,19.20
2019-03-30T14:44:10.702Z,19.17
2019-03-30T14:46:39.218Z,19.14
2019-03-30T14:49:07.703Z,19.09
2019-03-30T14:51:36.297Z,19.05
2019-03-30T14:54:04.850Z,18.97
2019-03-30T14:56:44.961Z,18.93
2019-03-30T14:59:10.183Z,18.91
2019-03-30T15:01:33.756Z,18.86
2019-03-30T15:04:02.223Z,18.82
2019-03-30T15:06:30.732Z,18.82
2019-03-30T15:08:59.202Z,18.80
2019-03-30T15:11:27.775Z,18.99
2019-03-30T15:13:56.283Z,18.99
2019-03-30T15:16:24.746Z,19.02
2019-03-30T15:18:53.274Z,18.94
2019-03-30T15:21:21.720Z,18.88
2019-03-30T15:23:50.183Z,18.83
2019-03-30T15:26:21.972Z,18.77
2019-03-30T15:28:48.927Z,18.73
2019-03-30T15:31:17.389Z,18.69
2019-03-30T15:33:45.861Z,18.65
2019-03-30T15:36:14.375Z,18.64
2019-03-30T15:38:42.845Z,18.63
2019-03-30T15:41:11.307Z,18.59
2019-03-30T15:43:39.810Z,18.57
2019-03-30T15:46:08.401Z,18.53
2019-03-30T15:48:36.921Z,18.51
2019-03-30T15:51:05.427Z,18.45
2019-03-30T15:53:33.885Z,18.39
2019-03-30T15:56:02.416Z,18.33
2019-03-30T15:58:30.902Z,18.28
2019-03-30T16:00:59.374Z,18.26
2019-03-30T16:03:27.836Z,18.22
2019-03-30T16:05:56.342Z,18.21
2019-03-30T16:08:24.821Z,18.22
2019-03-30T16:10:53.293Z,18.22
2019-03-30T16:13:21.831Z,18.21
2019-03-30T16:15:50.346Z,18.20
2019-03-30T16:18:18.817Z,18.17
2019-03-30T16:20:47.330Z,18.16
2019-03-30T16:23:15.824Z,18.11
2019-03-30T16:25:44.298Z,18.10
2019-03-30T16:28:12.809Z,18.08
2019-03-30T16:30:41.347Z,18.05
2019-03-30T16:33:09.820Z,18.04
2019-03-30T16:35:38.333Z,18.01
2019-03-30T16:38:06.806Z,17.99
2019-03-30T16:40:35.269Z,17.96
2019-03-30T16:43:03.772Z,17.92
2019-03-30T16:45:32.239Z,17.89
2019-03-30T16:48:01.124Z,17.86
2019-03-30T16:50:29.628Z,17.82
2019-03-30T16:52:58.100Z,17.77
2019-03-30T16:55:26.582Z,17.73
2019-03-30T16:57:55.086Z,17.69
2019-03-30T17:00:23.565Z,17.68
2019-03-30T17:02:52.079Z,17.71
2019-03-30T17:05:20.568Z,17.77
2019-03-30T17:07:49.030Z,17.83
2019-03-30T17:10:17.555Z,17.86
2019-03-30T17:12:46.049Z,17.84
2019-03-30T17:15:14.982Z,17.78
2019-03-30T17:17:43.445Z,17.66
2019-03-30T17:20:12.135Z,17.55
2019-03-30T17:22:40.670Z,17.38
2019-03-30T17:25:09.215Z,17.24
2019-03-30T17:27:37.711Z,17.11
2019-03-30T17:30:09.400Z,16.97
2019-03-30T17:32:37.943Z,16.83
2019-03-30T17:35:07.148Z,16.70
2019-03-30T17:37:35.595Z,16.60
2019-03-30T17:40:08.157Z,16.51
2019-03-30T17:42:38.762Z,16.40
2019-03-30T17:45:09.134Z,16.31
2019-03-30T17:47:37.605Z,16.23
2019-03-30T17:50:07.659Z,16.14
2019-03-30T17:52:36.165Z,16.05
2019-03-30T17:55:04.978Z,15.97
2019-03-30T17:57:33.485Z,15.91
2019-03-30T18:00:01.957Z,15.84
2019-03-30T18:02:30.425Z,15.76
2019-03-30T18:04:58.953Z,15.71
2019-03-30T18:07:27.437Z,15.64
2019-03-30T18:09:55.900Z,15.60
2019-03-30T18:12:24.389Z,15.55
2019-03-30T18:14:52.863Z,15.50
2019-03-30T18:17:21.402Z,15.46
2019-03-30T18:19:49.925Z,15.41
2019-03-30T18:22:18.394Z,15.36
2019-03-30T18:24:46.866Z,15.31
2019-03-30T18:27:15.420Z,15.25
2019-03-30T18:29:43.984Z,15.23
2019-03-30T18:32:12.462Z,15.18
2019-03-30T18:34:41.545Z,15.15
2019-03-30T18:37:10.167Z,15.11
2019-03-30T18:39:38.640Z,15.08
2019-03-30T18:42:07.159Z,15.04
2019-03-30T18:44:35.894Z,15.02
2019-03-30T18:47:04.350Z,15.01
2019-03-30T18:49:32.846Z,14.99
2019-03-30T18:52:05.426Z,14.96
2019-03-30T18:54:34.132Z,14.94
2019-03-30T18:57:02.841Z,14.93
2019-03-30T18:59:31.318Z,14.91
2019-03-30T19:01:59.791Z,14.89
2019-03-30T19:04:28.285Z,14.87
2019-03-30T19:06:56.749Z,14.87
2019-03-30T19:09:25.229Z,14.87
2019-03-30T19:11:53.742Z,14.85
2019-03-30T19:14:22.222Z,14.85
2019-03-30T19:16:50.696Z,14.85
2019-03-30T19:19:19.242Z,14.83
2019-03-30T19:21:47.690Z,14.84
2019-03-30T19:24:16.158Z,14.67
2019-03-30T19:26:44.648Z,14.81
2019-03-30T19:29:13.209Z,14.77
2019-03-30T19:31:41.663Z,14.75
2019-03-30T19:34:10.164Z,14.72
2019-03-30T19:36:38.638Z,14.68
2019-03-30T19:39:08.664Z,14.66
2019-03-30T19:41:37.170Z,14.64
2019-03-30T19:44:05.638Z,14.62
2019-03-30T19:46:35.349Z,14.61
2019-03-30T19:49:03.914Z,14.60
2019-03-30T19:51:32.397Z,14.57
2019-03-30T19:54:01.866Z,14.57
2019-03-30T19:56:30.371Z,14.55
2019-03-30T19:59:10.134Z,14.56
2019-03-30T20:01:29.421Z,14.56
2019-03-30T20:03:57.930Z,14.56
2019-03-30T20:06:26.400Z,14.55
2019-03-30T20:08:54.884Z,14.56
2019-03-30T20:11:23.485Z,14.54
2019-03-30T20:13:51.954Z,14.51
2019-03-30T20:16:20.416Z,14.50
2019-03-30T20:18:48.924Z,14.45
2019-03-30T20:21:17.458Z,14.42
2019-03-30T20:23:45.922Z,14.37
2019-03-30T20:26:14.446Z,14.31
2019-03-30T20:28:42.914Z,14.26
2019-03-30T20:31:11.395Z,14.18
2019-03-30T20:33:39.892Z,14.12
2019-03-30T20:36:08.364Z,14.05
2019-03-30T20:38:36.823Z,13.99
2019-03-30T20:41:05.335Z,13.92
2019-03-30T20:43:33.791Z,13.86
2019-03-30T20:46:02.270Z,13.80
2019-03-30T20:48:30.793Z,13.75
2019-03-30T20:50:59.261Z,13.71
2019-03-30T20:53:27.808Z,13.66
2019-03-30T20:55:57.613Z,13.61
2019-03-30T20:58:26.082Z,13.54
2019-03-30T21:00:54.554Z,13.49
2019-03-30T21:03:23.160Z,13.42
2019-03-30T21:05:51.632Z,13.33
2019-03-30T21:08:20.117Z,13.24
2019-03-30T21:10:48.625Z,13.17
2019-03-30T21:13:17.088Z,13.08
2019-03-30T21:15:45.679Z,13.04
2019-03-30T21:18:14.191Z,12.98
2019-03-30T21:20:42.671Z,12.92
2019-03-30T21:23:11.155Z,12.87
2019-03-30T21:25:39.670Z,12.80
2019-03-30T21:28:08.151Z,12.75
2019-03-30T21:30:36.614Z,12.68
2019-03-30T21:33:05.203Z,12.64
2019-03-30T21:35:33.673Z,12.59
2019-03-30T21:38:02.154Z,12.52
2019-03-30T21:40:30.643Z,12.46
2019-03-30T21:42:59.113Z,12.39
2019-03-30T21:45:27.593Z,12.32
2019-03-30T21:47:56.110Z,12.27
2019-03-30T21:50:24.590Z,12.19
2019-03-30T21:52:53.068Z,12.12
2019-03-30T21:55:21.573Z,12.05
2019-03-30T21:57:51.902Z,11.99
2019-03-30T22:00:37.475Z,11.92
2019-03-30T22:03:06.207Z,11.85
2019-03-30T22:05:35.243Z,11.78
2019-03-30T22:08:04.664Z,11.73
2019-03-30T22:10:33.125Z,11.69
2019-03-30T22:13:01.594Z,11.65
2019-03-30T22:15:30.378Z,11.62
2019-03-30T22:17:58.853Z,11.58
2019-03-30T22:20:27.378Z,11.53
2019-03-30T22:22:55.877Z,11.48
2019-03-30T22:25:24.338Z,11.43
2019-03-30T22:27:52.806Z,11.40
2019-03-30T22:30:24.934Z,11.35
2019-03-30T22:32:51.521Z,11.30
2019-03-30T22:35:19.987Z,11.25
2019-03-30T22:37:48.485Z,11.18
2019-03-30T22:40:16.948Z,11.13
2019-03-30T22:42:45.416Z,11.08
2019-03-30T22:45:13.905Z,11.02
2019-03-30T22:47:42.371Z,10.98
2019-03-30T22:50:11.080Z,10.94
2019-03-30T22:52:39.575Z,10.91
2019-03-30T22:55:08.588Z,10.87
2019-03-30T22:57:37.047Z,10.85
2019-03-30T23:00:07.487Z,10.82
2019-03-30T23:02:35.951Z,10.81
2019-03-30T23:05:04.867Z,10.78
2019-03-30T23:07:33.394Z,10.77
2019-03-30T23:10:01.934Z,10.76
2019-03-30T23:12:30.402Z,10.74
2019-03-30T23:14:58.920Z,10.71
2019-03-30T23:17:27.387Z,10.70
2019-03-30T23:19:55.862Z,10.69
2019-03-30T23:22:24.364Z,10.66
2019-03-30T23:24:52.843Z,10.64
2019-03-30T23:27:21.308Z,10.63
2019-03-30T23:29:49.816Z,10.64
2019-03-30T23:32:18.293Z,10.63
2019-03-30T23:34:46.752Z,10.62
2019-03-30T23:37:15.257Z,10.62
2019-03-30T23:39:43.725Z,10.61
2019-03-30T23:42:12.261Z,10.60
2019-03-30T23:44:40.749Z,10.59
2019-03-30T23:47:09.226Z,10.56
2019-03-30T23:49:37.708Z,10.55
2019-03-30T23:52:06.205Z,10.52
2019-03-30T23:54:34.677Z,10.49
2019-03-30T23:57:03.139Z,10.45
2019-03-30T23:59:31.662Z,10.41
